sensor_id;sensor_type;location;lat;lon;timestamp;pressure;altitude;pressure_sealevel;temperature;humidity
22649;BME280;11491;41.942;24.220;2023-03-16T00:01:03;88779.78;;;4.14;73.59
22649;BME280;11491;41.942;24.220;2023-03-16T00:03:31;88792.13;;;4.22;73.00
22649;BME280;11491;41.942;24.220;2023-03-16T00:05:58;88790.59;;;3.96;73.63
22649;BME280;11491;41.942;24.220;2023-03-16T00:08:24;88785.28;;;3.72;74.44
22649;BME280;11491;41.942;24.220;2023-03-16T00:10:52;88779.75;;;3.64;75.03
22649;BME280;11491;41.942;24.220;2023-03-16T00:13:21;88785.94;;;3.69;74.61
22649;BME280;11491;41.942;24.220;2023-03-16T00:15:52;88784.63;;;3.75;74.95
22649;BME280;11491;41.942;24.220;2023-03-16T00:18:21;88784.38;;;3.67;74.74
22649;BME280;11491;41.942;24.220;2023-03-16T00:20:53;88783.09;;;3.74;75.00
22649;BME280;11491;41.942;24.220;2023-03-16T00:23:21;88786.28;;;3.79;75.79
22649;BME280;11491;41.942;24.220;2023-03-16T00:25:51;88780.00;;;3.84;75.69
22649;BME280;11491;41.942;24.220;2023-03-16T00:28:19;88770.41;;;3.92;74.92
22649;BME280;11491;41.942;24.220;2023-03-16T00:30:46;88780.00;;;3.96;74.93
22649;BME280;11491;41.942;24.220;2023-03-16T00:33:13;88776.69;;;4.12;74.19
22649;BME280;11491;41.942;24.220;2023-03-16T00:35:40;88783.66;;;4.16;73.66
22649;BME280;11491;41.942;24.220;2023-03-16T00:38:16;88782.22;;;4.19;73.58
22649;BME280;11491;41.942;24.220;2023-03-16T00:40:43;88781.53;;;4.22;73.83
22649;BME280;11491;41.942;24.220;2023-03-16T00:43:10;88784.84;;;4.31;73.45
22649;BME280;11491;41.942;24.220;2023-03-16T00:45:37;88715.44;;;3.85;73.00
22649;BME280;11491;41.942;24.220;2023-03-16T00:48:04;88784.19;;;4.34;72.65
22649;BME280;11491;41.942;24.220;2023-03-16T00:50:31;88788.81;;;4.37;72.83
22649;BME280;11491;41.942;24.220;2023-03-16T00:52:57;88783.09;;;4.23;73.68
22649;BME280;11491;41.942;24.220;2023-03-16T00:55:25;88778.22;;;4.37;74.14
22649;BME280;11491;41.942;24.220;2023-03-16T00:57:52;88785.75;;;4.35;74.02
22649;BME280;11491;41.942;24.220;2023-03-16T01:00:20;88788.63;;;4.30;74.29
22649;BME280;11491;41.942;24.220;2023-03-16T01:02:49;88776.00;;;4.39;74.38
22649;BME280;11491;41.942;24.220;2023-03-16T01:05:16;88777.34;;;4.45;73.83
22649;BME280;11491;41.942;24.220;2023-03-16T01:07:43;88776.22;;;4.59;73.63
22649;BME280;11491;41.942;24.220;2023-03-16T01:10:11;88789.00;;;4.57;72.98
22649;BME280;11491;41.942;24.220;2023-03-16T01:12:39;88785.06;;;4.50;73.40
22649;BME280;11491;41.942;24.220;2023-03-16T01:15:07;88780.66;;;4.42;73.69
22649;BME280;11491;41.942;24.220;2023-03-16T01:17:34;88780.66;;;4.42;74.44
22649;BME280;11491;41.942;24.220;2023-03-16T01:20:01;88787.50;;;4.43;73.99
22649;BME280;11491;41.942;24.220;2023-03-16T01:22:32;88778.56;;;4.48;73.36
22649;BME280;11491;41.942;24.220;2023-03-16T01:24:59;88781.97;;;4.36;74.52
22649;BME280;11491;41.942;24.220;2023-03-16T01:27:25;88780.44;;;4.35;74.48
22649;BME280;11491;41.942;24.220;2023-03-16T01:29:54;88788.63;;;4.30;75.10
22649;BME280;11491;41.942;24.220;2023-03-16T01:32:20;88781.09;;;4.32;74.83
22649;BME280;11491;41.942;24.220;2023-03-16T01:34:47;88780.34;;;4.31;74.94
22649;BME280;11491;41.942;24.220;2023-03-16T01:37:14;88778.44;;;4.44;74.23
22649;BME280;11491;41.942;24.220;2023-03-16T01:39:40;88789.91;;;4.48;74.13
22649;BME280;11491;41.942;24.220;2023-03-16T01:42:08;88795.22;;;4.48;73.91
22649;BME280;11491;41.942;24.220;2023-03-16T01:44:54;88801.16;;;4.45;73.75
22649;BME280;11491;41.942;24.220;2023-03-16T01:47:21;88797.66;;;4.29;74.79
22649;BME280;11491;41.942;24.220;2023-03-16T01:49:50;88799.19;;;4.30;75.46
22649;BME280;11491;41.942;24.220;2023-03-16T01:52:22;88800.06;;;4.34;76.11
22649;BME280;11491;41.942;24.220;2023-03-16T01:54:51;88798.53;;;4.33;75.27
22649;BME280;11491;41.942;24.220;2023-03-16T01:57:22;88795.34;;;4.27;75.52
22649;BME280;11491;41.942;24.220;2023-03-16T01:59:52;88800.06;;;4.34;75.79
22649;BME280;11491;41.942;24.220;2023-03-16T02:02:23;88798.06;;;4.43;75.61
22649;BME280;11491;41.942;24.220;2023-03-16T02:04:55;88796.31;;;4.47;75.47
22649;BME280;11491;41.942;24.220;2023-03-16T02:07:26;88781.31;;;4.39;76.48
22649;BME280;11491;41.942;24.220;2023-03-16T02:09:57;88800.50;;;4.48;76.70
22649;BME280;11491;41.942;24.220;2023-03-16T02:12:27;88794.88;;;4.50;75.70
22649;BME280;11491;41.942;24.220;2023-03-16T02:14:54;88806.22;;;4.63;75.71
22649;BME280;11491;41.942;24.220;2023-03-16T02:17:25;88797.84;;;4.61;75.58
22649;BME280;11491;41.942;24.220;2023-03-16T02:19:59;88805.09;;;4.64;76.29
22649;BME280;11491;41.942;24.220;2023-03-16T02:22:33;88809.63;;;4.63;76.85
22649;BME280;11491;41.942;24.220;2023-03-16T02:25:01;88804.09;;;4.68;77.25
22649;BME280;11491;41.942;24.220;2023-03-16T02:27:33;88810.63;;;4.59;77.42
22649;BME280;11491;41.942;24.220;2023-03-16T02:30:08;88804.78;;;4.65;78.48
22649;BME280;11491;41.942;24.220;2023-03-16T02:32:37;88819.47;;;4.63;78.04
22649;BME280;11491;41.942;24.220;2023-03-16T02:35:06;88811.31;;;4.56;78.22
22649;BME280;11491;41.942;24.220;2023-03-16T02:37:33;88813.63;;;4.45;79.97
22649;BME280;11491;41.942;24.220;2023-03-16T02:40:00;88806.03;;;4.43;80.21
22649;BME280;11491;41.942;24.220;2023-03-16T02:42:30;88818.81;;;4.53;81.15
22649;BME280;11491;41.942;24.220;2023-03-16T02:44:59;88818.03;;;4.53;81.16
22649;BME280;11491;41.942;24.220;2023-03-16T02:47:33;88822.34;;;4.45;81.52
22649;BME280;11491;41.942;24.220;2023-03-16T02:50:01;88820.91;;;4.48;82.17
22649;BME280;11491;41.942;24.220;2023-03-16T02:52:31;88824.75;;;4.50;82.22
22649;BME280;11491;41.942;24.220;2023-03-16T02:54:58;88821.22;;;4.59;81.16
22649;BME280;11491;41.942;24.220;2023-03-16T02:57:25;88824.09;;;4.53;81.06
22649;BME280;11491;41.942;24.220;2023-03-16T02:59:51;88828.72;;;4.57;81.37
22649;BME280;11491;41.942;24.220;2023-03-16T03:02:18;88830.72;;;4.60;81.08
22649;BME280;11491;41.942;24.220;2023-03-16T03:04:46;88822.88;;;4.63;80.79
22649;BME280;11491;41.942;24.220;2023-03-16T03:07:14;88821.88;;;4.56;80.17
22649;BME280;11491;41.942;24.220;2023-03-16T03:09:41;88817.72;;;4.42;80.37
22649;BME280;11491;41.942;24.220;2023-03-16T03:12:08;88833.59;;;4.42;80.72
22649;BME280;11491;41.942;24.220;2023-03-16T03:14:36;88828.94;;;4.39;81.76
22649;BME280;11491;41.942;24.220;2023-03-16T03:17:03;88831.81;;;4.34;81.81
22649;BME280;11491;41.942;24.220;2023-03-16T03:19:31;88816.38;;;4.24;82.45
22649;BME280;11491;41.942;24.220;2023-03-16T03:22:00;88835.44;;;4.29;83.12
22649;BME280;11491;41.942;24.220;2023-03-16T03:24:28;88841.88;;;4.41;82.91
22649;BME280;11491;41.942;24.220;2023-03-16T03:26:56;88839.53;;;4.39;82.92
22649;BME280;11491;41.942;24.220;2023-03-16T03:29:23;88833.16;;;4.40;83.61
22649;BME280;11491;41.942;24.220;2023-03-16T03:31:50;88844.06;;;4.39;83.71
22649;BME280;11491;41.942;24.220;2023-03-16T03:34:16;88846.03;;;4.42;83.03
22649;BME280;11491;41.942;24.220;2023-03-16T03:36:43;88838.91;;;4.42;83.19
22649;BME280;11491;41.942;24.220;2023-03-16T03:39:11;88852.53;;;4.44;83.31
22649;BME280;11491;41.942;24.220;2023-03-16T03:41:38;88854.78;;;4.42;83.37
22649;BME280;11491;41.942;24.220;2023-03-16T03:44:05;88861.59;;;4.43;84.13
22649;BME280;11491;41.942;24.220;2023-03-16T03:46:32;88865.34;;;4.42;84.51
22649;BME280;11491;41.942;24.220;2023-03-16T03:48:58;88857.84;;;4.44;84.61
22649;BME280;11491;41.942;24.220;2023-03-16T03:51:28;88868.44;;;4.44;85.00
22649;BME280;11491;41.942;24.220;2023-03-16T03:53:55;88876.13;;;4.49;84.57
22649;BME280;11491;41.942;24.220;2023-03-16T03:56:24;88884.53;;;4.51;84.60
22649;BME280;11491;41.942;24.220;2023-03-16T03:58:51;88879.69;;;4.53;85.10
22649;BME280;11491;41.942;24.220;2023-03-16T04:01:18;88876.94;;;4.50;84.29
22649;BME280;11491;41.942;24.220;2023-03-16T04:03:45;88887.19;;;4.51;84.30
22649;BME280;11491;41.942;24.220;2023-03-16T04:06:12;88889.38;;;4.62;84.53
22649;BME280;11491;41.942;24.220;2023-03-16T04:08:39;88890.28;;;4.66;84.25
22649;BME280;11491;41.942;24.220;2023-03-16T04:11:05;88889.81;;;4.64;84.01
22649;BME280;11491;41.942;24.220;2023-03-16T04:13:34;88895.66;;;4.69;83.58
22649;BME280;11491;41.942;24.220;2023-03-16T04:16:00;88898.88;;;4.75;83.56
22649;BME280;11491;41.942;24.220;2023-03-16T04:18:28;88901.09;;;4.73;84.07
22649;BME280;11491;41.942;24.220;2023-03-16T04:21:03;88900.97;;;4.69;83.81
22649;BME280;11491;41.942;24.220;2023-03-16T04:23:30;88906.47;;;4.77;83.53
22649;BME280;11491;41.942;24.220;2023-03-16T04:25:58;88889.38;;;4.62;83.50
22649;BME280;11491;41.942;24.220;2023-03-16T04:28:25;88901.75;;;4.70;83.51
22649;BME280;11491;41.942;24.220;2023-03-16T04:30:53;88908.81;;;4.78;83.54
22649;BME280;11491;41.942;24.220;2023-03-16T04:33:20;88910.69;;;4.65;83.63
22649;BME280;11491;41.942;24.220;2023-03-16T04:35:47;88915.53;;;4.75;84.00
22649;BME280;11491;41.942;24.220;2023-03-16T04:38:14;88919.41;;;4.78;83.59
22649;BME280;11491;41.942;24.220;2023-03-16T04:40:40;88923.78;;;4.74;83.42
22649;BME280;11491;41.942;24.220;2023-03-16T04:43:07;88923.69;;;4.70;83.82
22649;BME280;11491;41.942;24.220;2023-03-16T04:45:34;88925.22;;;4.71;83.62
22649;BME280;11491;41.942;24.220;2023-03-16T04:48:02;88922.94;;;4.70;83.21
22649;BME280;11491;41.942;24.220;2023-03-16T04:50:29;88927.78;;;4.68;83.56
22649;BME280;11491;41.942;24.220;2023-03-16T04:52:56;88935.94;;;4.75;83.94
22649;BME280;11491;41.942;24.220;2023-03-16T04:55:22;88943.44;;;4.73;82.92
22649;BME280;11491;41.942;24.220;2023-03-16T04:57:49;88938.81;;;4.70;83.99
22649;BME280;11491;41.942;24.220;2023-03-16T05:00:17;88941.69;;;4.77;83.52
22649;BME280;11491;41.942;24.220;2023-03-16T05:02:44;88945.44;;;4.76;82.85
22649;BME280;11491;41.942;24.220;2023-03-16T05:05:13;88938.81;;;4.70;83.04
22649;BME280;11491;41.942;24.220;2023-03-16T05:07:40;88947.31;;;4.75;83.31
22649;BME280;11491;41.942;24.220;2023-03-16T05:10:08;88956.03;;;4.76;83.08
22649;BME280;11491;41.942;24.220;2023-03-16T05:12:35;88945.56;;;4.67;83.13
22649;BME280;11491;41.942;24.220;2023-03-16T05:15:05;88950.94;;;4.71;82.81
22649;BME280;11491;41.942;24.220;2023-03-16T05:17:32;88952.47;;;4.72;82.20
22649;BME280;11491;41.942;24.220;2023-03-16T05:19:59;88954.72;;;4.70;82.20
22649;BME280;11491;41.942;24.220;2023-03-16T05:22:27;88957.56;;;4.65;81.80
22649;BME280;11491;41.942;24.220;2023-03-16T05:24:54;88959.44;;;4.64;82.09
22649;BME280;11491;41.942;24.220;2023-03-16T05:27:20;88965.06;;;4.63;82.31
22649;BME280;11491;41.942;24.220;2023-03-16T05:29:47;88961.31;;;4.64;82.51
22649;BME280;11491;41.942;24.220;2023-03-16T05:32:14;88965.53;;;4.65;81.68
22649;BME280;11491;41.942;24.220;2023-03-16T05:34:42;88975.66;;;4.63;80.31
22649;BME280;11491;41.942;24.220;2023-03-16T05:37:09;88972.75;;;4.43;81.22
22649;BME280;11491;41.942;24.220;2023-03-16T05:39:37;88971.13;;;4.51;82.85
22649;BME280;11491;41.942;24.220;2023-03-16T05:42:04;88979.59;;;4.44;82.52
22649;BME280;11491;41.942;24.220;2023-03-16T05:44:31;88980.50;;;4.48;82.54
22649;BME280;11491;41.942;24.220;2023-03-16T05:46:58;88985.25;;;4.55;82.55
22649;BME280;11491;41.942;24.220;2023-03-16T05:49:25;88984.69;;;4.62;82.22
22649;BME280;11491;41.942;24.220;2023-03-16T05:51:51;88993.75;;;4.61;81.97
22649;BME280;11491;41.942;24.220;2023-03-16T05:54:19;88969.25;;;4.51;81.03
22649;BME280;11491;41.942;24.220;2023-03-16T05:56:47;88989.69;;;4.75;81.35
22649;BME280;11491;41.942;24.220;2023-03-16T05:59:14;88986.03;;;4.80;80.98
22649;BME280;11491;41.942;24.220;2023-03-16T06:01:42;88983.06;;;4.82;79.10
22649;BME280;11491;41.942;24.220;2023-03-16T06:04:08;88986.25;;;4.75;79.30
22649;BME280;11491;41.942;24.220;2023-03-16T06:06:35;88990.00;;;4.74;80.60
22649;BME280;11491;41.942;24.220;2023-03-16T06:09:03;88990.44;;;4.76;80.33
22649;BME280;11491;41.942;24.220;2023-03-16T06:11:29;88988.94;;;4.87;80.56
22649;BME280;11491;41.942;24.220;2023-03-16T06:13:58;88999.75;;;4.82;80.44
22649;BME280;11491;41.942;24.220;2023-03-16T06:16:25;89004.69;;;4.84;77.47
22649;BME280;11491;41.942;24.220;2023-03-16T06:18:52;89002.16;;;4.87;76.51
22649;BME280;11491;41.942;24.220;2023-03-16T06:21:20;89006.78;;;4.90;77.96
22649;BME280;11491;41.942;24.220;2023-03-16T06:23:47;89004.69;;;4.96;77.96
22649;BME280;11491;41.942;24.220;2023-03-16T06:26:14;89006.34;;;5.01;77.71
22649;BME280;11491;41.942;24.220;2023-03-16T06:28:41;89016.50;;;5.11;77.61
22649;BME280;11491;41.942;24.220;2023-03-16T06:31:09;89018.72;;;5.21;77.34
22649;BME280;11491;41.942;24.220;2023-03-16T06:33:36;89026.03;;;5.24;76.81
22649;BME280;11491;41.942;24.220;2023-03-16T06:36:03;89023.56;;;5.19;77.94
22649;BME280;11491;41.942;24.220;2023-03-16T06:38:30;89031.31;;;5.24;77.30
22649;BME280;11491;41.942;24.220;2023-03-16T06:40:58;89028.69;;;5.24;77.38
22649;BME280;11491;41.942;24.220;2023-03-16T06:43:24;89037.50;;;5.28;78.09
22649;BME280;11491;41.942;24.220;2023-03-16T06:45:51;89037.94;;;5.30;78.18
22649;BME280;11491;41.942;24.220;2023-03-16T06:48:19;89040.03;;;5.37;77.37
22649;BME280;11491;41.942;24.220;2023-03-16T06:50:46;89045.00;;;5.38;77.22
22649;BME280;11491;41.942;24.220;2023-03-16T06:53:13;89041.78;;;5.33;76.91
22649;BME280;11491;41.942;24.220;2023-03-16T06:55:40;89050.66;;;5.37;77.36
22649;BME280;11491;41.942;24.220;2023-03-16T06:58:07;89051.63;;;5.45;76.12
22649;BME280;11491;41.942;24.220;2023-03-16T07:00:33;89055.59;;;5.51;75.50
22649;BME280;11491;41.942;24.220;2023-03-16T07:03:00;89055.38;;;5.56;75.32
22649;BME280;11491;41.942;24.220;2023-03-16T07:05:29;89060.88;;;5.63;74.22
22649;BME280;11491;41.942;24.220;2023-03-16T07:07:55;89064.44;;;5.67;74.36
22649;BME280;11491;41.942;24.220;2023-03-16T07:10:22;89066.94;;;5.64;74.18
22649;BME280;11491;41.942;24.220;2023-03-16T07:12:50;89079.22;;;5.56;73.66
22649;BME280;11491;41.942;24.220;2023-03-16T07:15:17;89073.94;;;5.56;73.91
22649;BME280;11491;41.942;24.220;2023-03-16T07:17:44;89075.38;;;5.53;74.85
22649;BME280;11491;41.942;24.220;2023-03-16T07:20:11;89069.84;;;5.46;73.90
22649;BME280;11491;41.942;24.220;2023-03-16T07:22:39;89083.22;;;5.37;73.90
22649;BME280;11491;41.942;24.220;2023-03-16T07:25:07;89086.94;;;5.36;74.12
22649;BME280;11491;41.942;24.220;2023-03-16T07:27:35;89086.09;;;5.20;75.88
22649;BME280;11491;41.942;24.220;2023-03-16T07:30:03;89082.06;;;5.02;76.00
22649;BME280;11491;41.942;24.220;2023-03-16T07:32:30;89095.56;;;5.09;76.29
22649;BME280;11491;41.942;24.220;2023-03-16T07:34:57;89097.13;;;5.10;77.51
22649;BME280;11491;41.942;24.220;2023-03-16T07:37:24;89099.19;;;5.16;76.57
22649;BME280;11491;41.942;24.220;2023-03-16T07:39:52;89100.63;;;5.14;75.89
22649;BME280;11491;41.942;24.220;2023-03-16T07:42:19;89106.84;;;5.18;76.65
22649;BME280;11491;41.942;24.220;2023-03-16T07:44:47;89108.03;;;5.08;76.37
22649;BME280;11491;41.942;24.220;2023-03-16T07:47:14;89111.44;;;4.96;76.98
22649;BME280;11491;41.942;24.220;2023-03-16T07:49:40;89103.69;;;4.91;76.84
22649;BME280;11491;41.942;24.220;2023-03-16T07:52:09;89107.47;;;5.03;75.89
22649;BME280;11491;41.942;24.220;2023-03-16T07:54:38;89113.84;;;5.02;76.79
22649;BME280;11491;41.942;24.220;2023-03-16T07:57:06;89108.97;;;4.91;75.55
22649;BME280;11491;41.942;24.220;2023-03-16T07:59:33;89111.19;;;4.89;75.99
22649;BME280;11491;41.942;24.220;2023-03-16T08:02:00;89124.63;;;4.84;76.16
22649;BME280;11491;41.942;24.220;2023-03-16T08:04:27;89132.38;;;4.77;75.69
22649;BME280;11491;41.942;24.220;2023-03-16T08:06:54;89131.25;;;4.78;75.02
22649;BME280;11491;41.942;24.220;2023-03-16T08:09:24;89118.63;;;4.63;75.04
22649;BME280;11491;41.942;24.220;2023-03-16T08:11:51;89143.13;;;4.72;75.06
22649;BME280;11491;41.942;24.220;2023-03-16T08:14:19;89132.31;;;4.65;74.24
22649;BME280;11491;41.942;24.220;2023-03-16T08:16:46;89142.78;;;4.61;74.84
22649;BME280;11491;41.942;24.220;2023-03-16T08:19:13;89132.31;;;4.65;75.04
22649;BME280;11491;41.942;24.220;2023-03-16T08:21:41;89144.25;;;4.71;75.33
22649;BME280;11491;41.942;24.220;2023-03-16T08:24:08;89142.75;;;4.82;75.29
22649;BME280;11491;41.942;24.220;2023-03-16T08:26:35;89148.25;;;4.89;73.63
22649;BME280;11491;41.942;24.220;2023-03-16T08:29:02;89148.41;;;4.93;73.73
22649;BME280;11491;41.942;24.220;2023-03-16T08:31:30;89150.94;;;5.02;72.78
22649;BME280;11491;41.942;24.220;2023-03-16T08:33:59;89156.47;;;4.96;72.54
22649;BME280;11491;41.942;24.220;2023-03-16T08:36:26;89147.63;;;4.92;72.98
22649;BME280;11491;41.942;24.220;2023-03-16T08:38:54;89154.06;;;5.04;72.83
22649;BME280;11491;41.942;24.220;2023-03-16T08:41:22;89151.63;;;5.11;71.99
22649;BME280;11491;41.942;24.220;2023-03-16T08:43:49;89151.44;;;5.16;72.26
22649;BME280;11491;41.942;24.220;2023-03-16T08:46:16;89150.47;;;5.33;71.83
22649;BME280;11491;41.942;24.220;2023-03-16T08:48:44;89150.72;;;5.40;70.82
22649;BME280;11491;41.942;24.220;2023-03-16T08:51:11;89156.78;;;5.40;70.29
22649;BME280;11491;41.942;24.220;2023-03-16T08:53:38;89157.97;;;5.31;69.96
22649;BME280;11491;41.942;24.220;2023-03-16T08:56:06;89162.06;;;5.28;70.15
22649;BME280;11491;41.942;24.220;2023-03-16T08:58:34;89157.00;;;5.35;69.80
22649;BME280;11491;41.942;24.220;2023-03-16T09:01:02;89160.78;;;5.47;70.63
22649;BME280;11491;41.942;24.220;2023-03-16T09:03:30;89160.97;;;5.54;69.50
22649;BME280;11491;41.942;24.220;2023-03-16T09:06:01;89165.63;;;5.57;68.35
22649;BME280;11491;41.942;24.220;2023-03-16T09:08:28;89158.34;;;5.66;69.10
22649;BME280;11491;41.942;24.220;2023-03-16T09:10:59;89169.06;;;5.82;67.39
22649;BME280;11491;41.942;24.220;2023-03-16T09:13:26;89169.06;;;5.82;67.63
22649;BME280;11491;41.942;24.220;2023-03-16T09:15:54;89163.22;;;5.76;68.02
22649;BME280;11491;41.942;24.220;2023-03-16T09:18:21;89156.81;;;5.90;68.33
22649;BME280;11491;41.942;24.220;2023-03-16T09:20:48;89166.53;;;6.10;67.93
22649;BME280;11491;41.942;24.220;2023-03-16T09:23:17;89162.00;;;6.11;66.20
22649;BME280;11491;41.942;24.220;2023-03-16T09:25:45;89166.75;;;6.17;66.58
22649;BME280;11491;41.942;24.220;2023-03-16T09:28:12;89146.88;;;6.11;66.04
22649;BME280;11491;41.942;24.220;2023-03-16T09:30:40;89165.78;;;6.50;66.41
22649;BME280;11491;41.942;24.220;2023-03-16T09:33:06;89161.13;;;6.59;63.56
22649;BME280;11491;41.942;24.220;2023-03-16T09:35:33;89170.59;;;6.73;64.86
22649;BME280;11491;41.942;24.220;2023-03-16T09:38:01;89165.97;;;6.69;63.60
22649;BME280;11491;41.942;24.220;2023-03-16T09:40:30;89162.88;;;6.67;63.42
22649;BME280;11491;41.942;24.220;2023-03-16T09:43:09;89168.19;;;6.67;62.21
22649;BME280;11491;41.942;24.220;2023-03-16T09:45:47;89167.31;;;6.63;64.36
22649;BME280;11491;41.942;24.220;2023-03-16T09:48:17;89172.38;;;6.81;63.82
22649;BME280;11491;41.942;24.220;2023-03-16T09:50:46;89166.66;;;6.95;63.60
22649;BME280;11491;41.942;24.220;2023-03-16T09:53:17;89173.94;;;7.26;60.98
22649;BME280;11491;41.942;24.220;2023-03-16T09:55:51;89171.72;;;7.44;60.88
22649;BME280;11491;41.942;24.220;2023-03-16T09:58:20;89173.38;;;7.48;59.97
22649;BME280;11491;41.942;24.220;2023-03-16T10:00:54;89174.41;;;7.60;60.73
22649;BME280;11491;41.942;24.220;2023-03-16T10:03:34;89182.28;;;7.72;58.89
22649;BME280;11491;41.942;24.220;2023-03-16T10:06:10;89166.19;;;7.81;58.14
22649;BME280;11491;41.942;24.220;2023-03-16T10:08:39;89169.16;;;7.47;57.16
22649;BME280;11491;41.942;24.220;2023-03-16T10:11:30;89159.38;;;7.36;59.90
22649;BME280;11491;41.942;24.220;2023-03-16T10:14:01;89149.19;;;7.53;60.26
22649;BME280;11491;41.942;24.220;2023-03-16T10:16:34;89169.25;;;7.67;60.22
22649;BME280;11491;41.942;24.220;2023-03-16T10:19:09;89169.75;;;7.57;60.42
22649;BME280;11491;41.942;24.220;2023-03-16T10:21:40;89170.44;;;7.53;58.97
22649;BME280;11491;41.942;24.220;2023-03-16T10:24:16;89169.75;;;7.57;59.71
22649;BME280;11491;41.942;24.220;2023-03-16T10:26:53;89165.13;;;7.53;58.69
22649;BME280;11491;41.942;24.220;2023-03-16T10:29:24;89166.16;;;7.65;58.11
22649;BME280;11491;41.942;24.220;2023-03-16T10:31:53;89164.88;;;7.74;59.11
22649;BME280;11491;41.942;24.220;2023-03-16T10:34:24;89163.59;;;7.84;58.05
22649;BME280;11491;41.942;24.220;2023-03-16T10:36:52;89156.91;;;7.90;57.54
22649;BME280;11491;41.942;24.220;2023-03-16T10:39:19;89165.63;;;8.07;56.90
22649;BME280;11491;41.942;24.220;2023-03-16T10:41:54;89158.66;;;8.18;56.34
22649;BME280;11491;41.942;24.220;2023-03-16T10:44:23;89163.03;;;8.26;53.80
22649;BME280;11491;41.942;24.220;2023-03-16T10:46:59;89148.44;;;8.20;55.60
22649;BME280;11491;41.942;24.220;2023-03-16T10:49:34;89163.03;;;8.26;56.07
22649;BME280;11491;41.942;24.220;2023-03-16T10:52:06;89154.94;;;8.38;56.64
22649;BME280;11491;41.942;24.220;2023-03-16T10:54:36;89119.56;;;8.22;56.17
22649;BME280;11491;41.942;24.220;2023-03-16T10:57:21;89159.16;;;8.39;56.40
22649;BME280;11491;41.942;24.220;2023-03-16T10:59:51;89154.25;;;8.41;56.83
22649;BME280;11491;41.942;24.220;2023-03-16T11:02:20;89154.59;;;8.24;56.32
22649;BME280;11491;41.942;24.220;2023-03-16T11:04:49;89160.59;;;8.37;56.96
22649;BME280;11491;41.942;24.220;2023-03-16T11:07:18;89155.97;;;8.50;56.42
22649;BME280;11491;41.942;24.220;2023-03-16T11:09:49;89156.47;;;8.55;55.52
22649;BME280;11491;41.942;24.220;2023-03-16T11:12:23;89149.09;;;8.49;54.23
22649;BME280;11491;41.942;24.220;2023-03-16T11:14:51;89157.00;;;8.29;56.47
22649;BME280;11491;41.942;24.220;2023-03-16T11:17:23;89157.69;;;8.26;56.20
22649;BME280;11491;41.942;24.220;2023-03-16T11:19:57;89151.25;;;8.27;57.10
22649;BME280;11491;41.942;24.220;2023-03-16T11:22:26;89161.53;;;8.45;54.65
22649;BME280;11491;41.942;24.220;2023-03-16T11:25:01;89154.25;;;8.41;54.11
22649;BME280;11491;41.942;24.220;2023-03-16T11:27:36;89157.34;;;8.44;55.17
22649;BME280;11491;41.942;24.220;2023-03-16T11:30:13;89159.25;;;8.27;54.50
22649;BME280;11491;41.942;24.220;2023-03-16T11:32:45;89155.56;;;8.16;55.01
22649;BME280;11491;41.942;24.220;2023-03-16T11:35:15;89164.88;;;8.06;56.85
22649;BME280;11491;41.942;24.220;2023-03-16T11:38:07;89161.25;;;8.14;56.94
22649;BME280;11491;41.942;24.220;2023-03-16T11:40:42;89161.16;;;8.11;56.17
22649;BME280;11491;41.942;24.220;2023-03-16T11:43:35;89159.97;;;7.92;56.22
22649;BME280;11491;41.942;24.220;2023-03-16T11:46:10;89163.75;;;7.91;56.69
22649;BME280;11491;41.942;24.220;2023-03-16T11:48:41;89164.69;;;7.99;55.62
22649;BME280;11491;41.942;24.220;2023-03-16T11:51:18;89168.56;;;8.02;55.86
22649;BME280;11491;41.942;24.220;2023-03-16T11:53:55;89168.16;;;7.84;56.30
22649;BME280;11491;41.942;24.220;2023-03-16T11:56:32;89166.78;;;7.74;55.88
22649;BME280;11491;41.942;24.220;2023-03-16T11:59:19;89167.69;;;7.34;56.17
22649;BME280;11491;41.942;24.220;2023-03-16T12:02:02;89174.78;;;7.30;57.03
22649;BME280;11491;41.942;24.220;2023-03-16T12:07:36;89172.81;;;7.27;58.12
22649;BME280;11491;41.942;24.220;2023-03-16T12:10:11;89171.72;;;7.44;57.88
22649;BME280;11491;41.942;24.220;2023-03-16T12:12:52;89167.72;;;7.66;57.14
22649;BME280;11491;41.942;24.220;2023-03-16T12:15:31;89171.81;;;7.79;57.22
22649;BME280;11491;41.942;24.220;2023-03-16T12:18:05;89174.84;;;7.93;57.38
22649;BME280;11491;41.942;24.220;2023-03-16T12:20:41;89168.47;;;8.14;56.80
22649;BME280;11491;41.942;24.220;2023-03-16T12:23:12;89167.75;;;8.33;55.66
22649;BME280;11491;41.942;24.220;2023-03-16T12:25:44;89172.09;;;8.57;53.24
22649;BME280;11491;41.942;24.220;2023-03-16T12:28:20;89180.66;;;8.66;52.81
22649;BME280;11491;41.942;24.220;2023-03-16T12:30:54;89180.25;;;8.83;52.72
22649;BME280;11491;41.942;24.220;2023-03-16T12:33:33;89179.03;;;8.97;53.14
22649;BME280;11491;41.942;24.220;2023-03-16T12:36:08;89183.81;;;8.72;52.98
22649;BME280;11491;41.942;24.220;2023-03-16T12:38:43;89174.47;;;8.62;53.26
22649;BME280;11491;41.942;24.220;2023-03-16T12:41:21;89185.28;;;8.69;53.68
22649;BME280;11491;41.942;24.220;2023-03-16T12:44:10;89191.63;;;8.80;52.44
22649;BME280;11491;41.942;24.220;2023-03-16T12:46:50;89190.97;;;8.68;52.54
22649;BME280;11491;41.942;24.220;2023-03-16T12:49:21;89193.56;;;8.64;53.19
22649;BME280;11491;41.942;24.220;2023-03-16T12:51:58;89188.00;;;8.53;52.63
22649;BME280;11491;41.942;24.220;2023-03-16T12:54:25;89193.28;;;8.50;53.07
22649;BME280;11491;41.942;24.220;2023-03-16T12:56:53;89193.56;;;8.64;52.67
22649;BME280;11491;41.942;24.220;2023-03-16T12:59:35;89197.66;;;8.77;52.06
22649;BME280;11491;41.942;24.220;2023-03-16T13:02:12;89204.69;;;8.86;51.78
22649;BME280;11491;41.942;24.220;2023-03-16T13:04:41;89185.41;;;8.57;51.63
22649;BME280;11491;41.942;24.220;2023-03-16T13:07:16;89195.94;;;8.69;51.84
22649;BME280;11491;41.942;24.220;2023-03-16T13:09:48;89206.50;;;8.81;51.84
22649;BME280;11491;41.942;24.220;2023-03-16T13:12:25;89206.44;;;8.97;50.76
22649;BME280;11491;41.942;24.220;2023-03-16T13:14:52;89196.97;;;8.80;50.15